Analomink, PA

2:54 AM EDT on September 02, 2014 (GMT -0400)
Terra Greens Golf Course | Change Station
CLOSE
Current Station
Personal Weather Station
Location: East Stroudsburg, PA
Elevation: 518 ft
Nearby Weather Stations

Elev 518 ft 41.01 °N, 75.17 °W | Updated 8 seconds ago

Clear
Clear
68.5 °F
Feels Like 68.5 °F
N
0.0
Wind Variable Wind from North
Gusts 0.0 mph

Today
High -- | Low -- °F
--% Chance of Precip.
Yesterday
High -- | Low -- °F
Precip. -- in
6:28 AM 7:31 PM
Waxing Crescent, 48% visible
Pressure 29.97 in
Visibility 8.0 miles
Clouds Clear
Dew Point 65 °F
Humidity 89%
Rainfall 0.00 in
Snow Depth Not available.
UV 0 out of 12
Pollen 5.60 out of 12
Air Quality Not available.
Flu Activity Not available.
METAR KMPO 020553Z AUTO 29003KT 8SM CLR 19/18 A3000 RMK AO2 SLP147 T01940183 10233 20189 57010 TSNO

More Conditions Fewer Conditions

Pressure 29.97 in
Visibility 8.0 miles
Clouds Clear
Dew Point 65 °F
Humidity 89%
Rainfall 0.00 in
Snow Depth Not available.
UV 0 out of 12
Pollen 5.60 out of 12
Air Quality Not available.
Flu Activity Not available.
METAR KMPO 020553Z AUTO 29003KT 8SM CLR 19/18 A3000 RMK AO2 SLP147 T01940183 10233 20189 57010 TSNO

More Conditions Fewer Conditions

10-Day Weather Forecast

Almanac

Astronomy

Sep. 02, 2014 Rise Set
Actual Time 6:28 AM EDT 7:31 PM EDT
Civil Twilight 6:00 AM EDT 7:59 PM EDT
Nautical Twilight 5:26 AM EDT 8:33 PM EDT
Astronomical Twilight 4:51 AM EDT 9:08 PM EDT
Moon 2:13 PM EDT No Moon Set
Length of Visible Light 13h 59m
Length of Day
13h 03m
Tomorrow will be 2m 38s shorter.
Waxing Crescent, 48% of the Moon is Illuminated
Today
Waxing Crescent
Sep 2
First Quarter
Sep 8
Full
Sep 15
Last Quarter
Sep 24
New

Today's Extremes

State Highs State Lows

Community

WunderPhotos

Upload Photos

1,749,589 photos uploaded!

WunderBlogs® & News

Nearby

Snow Depth

Station Depth Elevation
No new snow has been reported.

Earthquake Activity

City Distance Mag. Time & Date
No recent earthquake activity has been reported nearby.
Minimum magnitude displayed is 2.5.

Coastal Water Temperatures

Place Temperature
No Stations Reporting

Nearby Weather Stations